SWH weather

Swan Hill Airport
Victoria, Australia

Public forecast

Using degrees Celsius for public forecast. Weather courtesy of forecast.io.

METAR (pilot weather report)

Closest report is Mildura Airport, 99.1 nm (183.6 km) NW. Retrieved 2019/03/26 05:00 UTC (41 minutes ago):

YMIA 260500Z AUTO 21007KT 170V230 9999 // NCD 23/04 Q1020

TAF (pilot weather forecast)

Closest forecast is Wangaratta Airport, 148.7 nm (275.3 km) ESE. Retrieved 2019/03/26 02:03 UTC (4 hours ago):

TAF YWGT 260016Z 2602/2614 24012KT 9999 SCT045 FM260700 20007KT CAVOK FM261100 VRB05KT CAVOK